Mur-de-Barrez, France
Current Conditions -  °F | °C
As of 7:00 PM on Saturday 25 Oct 2014 (Local Time) from LFLW Reporting Station
Overcast Overcast  
Wind Chill: 57°   Ceiling: 3600
Heat Index: 57°   Visibility: 6mi
Dew Point: 43°   Wind: 3mph
Humidity: 59%   Direction: 290°WNW
Pressure: 30.18"   Gusts: NA
Location:  44.85°N, 2.65°E
Report Text: LFLW 251700Z AUTO 29003KT 9999 BKN036 OVC046 14/06 Q1022
Loading
Personal Weather Stations






























Interactive Weather Map New forecast layout! Learn more

10-Day Weather Forecast

Advertisements
Track Severe Weather on mobile